createdAt,value
2024-05-09T00:01:14.837Z,9.12
2024-05-09T00:06:17.428Z,9.04
2024-05-09T00:11:22.363Z,9.11
2024-05-09T00:16:24.628Z,8.86
2024-05-09T00:21:27.033Z,8.83
2024-05-09T00:26:32.025Z,8.89
2024-05-09T00:31:34.329Z,8.84
2024-05-09T00:36:36.568Z,8.67
2024-05-09T00:41:41.402Z,8.65
2024-05-09T00:46:43.865Z,8.58
2024-05-09T00:51:46.102Z,8.60
2024-05-09T00:56:51.369Z,8.55
2024-05-09T01:01:54.093Z,8.49
2024-05-09T01:06:56.368Z,8.41
2024-05-09T01:12:01.618Z,8.25
2024-05-09T01:17:04.405Z,8.30
2024-05-09T01:22:06.862Z,8.15
2024-05-09T01:27:11.695Z,8.12
2024-05-09T01:32:14.057Z,8.13
2024-05-09T01:37:16.323Z,8.00
2024-05-09T01:42:21.135Z,7.76
2024-05-09T01:47:23.567Z,7.86
2024-05-09T01:52:25.867Z,7.89
2024-05-09T01:57:31.085Z,7.86
2024-05-09T02:02:34.317Z,7.63
2024-05-09T02:07:36.613Z,7.77
2024-05-09T02:12:41.704Z,7.81
2024-05-09T02:17:44.221Z,7.80
2024-05-09T02:22:46.868Z,7.81
2024-05-09T02:27:51.761Z,7.62
2024-05-09T02:32:54.096Z,7.73
2024-05-09T02:37:56.447Z,7.81
2024-05-09T02:43:01.365Z,7.85
2024-05-09T02:48:04.220Z,7.81
2024-05-09T02:53:06.734Z,7.90
2024-05-09T02:58:12.095Z,7.93
2024-05-09T03:03:15.685Z,7.97
2024-05-09T03:08:18.472Z,7.73
2024-05-09T03:13:23.693Z,8.04
2024-05-09T03:18:25.984Z,7.92
2024-05-09T03:23:28.463Z,8.00
2024-05-09T03:28:33.495Z,8.12
2024-05-09T03:33:36.009Z,8.17
2024-05-09T03:38:38.709Z,8.13
2024-05-09T03:43:44.137Z,8.27
2024-05-09T03:48:46.476Z,8.32
2024-05-09T03:53:49.567Z,8.26
2024-05-09T03:58:55.433Z,7.98
2024-05-09T04:03:58.514Z,8.11
2024-05-09T04:09:00.955Z,8.41
2024-05-09T04:14:06.385Z,8.55
2024-05-09T04:19:08.859Z,8.67
2024-05-09T04:24:11.376Z,8.60
2024-05-09T04:29:16.475Z,8.84
2024-05-09T04:34:19.092Z,8.35
2024-05-09T04:39:21.358Z,8.89
2024-05-09T04:44:26.299Z,9.06
2024-05-09T04:49:28.819Z,9.17
2024-05-09T04:54:36.223Z,9.26
2024-05-09T04:59:41.681Z,9.30
2024-05-09T05:04:45.616Z,9.49
2024-05-09T05:09:48.170Z,9.53
2024-05-09T05:14:53.228Z,9.50
2024-05-09T05:19:55.583Z,9.64
2024-05-09T05:24:58.146Z,9.83
2024-05-09T05:30:04.607Z,9.85
2024-05-09T05:35:08.390Z,9.60
2024-05-09T05:40:14.643Z,10.21
2024-05-09T05:45:22.357Z,10.33
2024-05-09T05:50:32.290Z,9.57
2024-05-09T05:55:39.570Z,10.60
2024-05-09T06:00:45.668Z,10.63
2024-05-09T06:05:47.973Z,10.48
2024-05-09T06:10:50.509Z,10.77
2024-05-09T06:15:55.725Z,10.73
2024-05-09T06:20:58.063Z,10.78
2024-05-09T06:26:00.444Z,11.06
2024-05-09T06:31:05.642Z,10.97
2024-05-09T06:36:08.492Z,10.77
2024-05-09T06:41:10.877Z,11.48
2024-05-09T06:46:15.738Z,11.48
2024-05-09T06:51:18.040Z,11.62
2024-05-09T06:56:20.344Z,11.47
2024-05-09T07:01:25.188Z,10.87
2024-05-09T07:06:27.456Z,11.53
2024-05-09T07:11:29.854Z,11.57
2024-05-09T07:16:35.114Z,11.88
2024-05-09T07:21:37.391Z,12.02
2024-05-09T07:26:39.863Z,12.05
2024-05-09T07:31:44.628Z,12.30
2024-05-09T07:36:47.314Z,12.26
2024-05-09T07:41:49.773Z,12.65
2024-05-09T07:48:13.769Z,12.83
2024-05-09T07:53:29.940Z,12.98
2024-05-09T07:57:38.852Z,13.14
2024-05-09T08:02:43.722Z,13.43
2024-05-09T08:07:46.008Z,13.52
2024-05-09T08:12:48.375Z,13.81
2024-05-09T08:17:53.264Z,13.42
2024-05-09T08:22:55.590Z,13.51
2024-05-09T08:27:57.619Z,13.66
2024-05-09T08:33:03.649Z,13.79
2024-05-09T08:38:07.522Z,14.04
2024-05-09T08:43:12.089Z,14.43
2024-05-09T08:48:19.990Z,14.63
2024-05-09T08:53:22.646Z,14.67
2024-05-09T08:58:26.495Z,15.06
2024-05-09T09:03:33.811Z,15.29
2024-05-09T09:08:39.515Z,15.56
2024-05-09T09:13:41.994Z,15.67
2024-05-09T09:18:47.088Z,15.97
2024-05-09T09:23:49.425Z,16.13
2024-05-09T09:28:52.228Z,16.57
2024-05-09T09:33:57.770Z,16.79
2024-05-09T09:39:00.511Z,17.15
2024-05-09T09:44:04.417Z,17.23
2024-05-09T09:49:10.255Z,17.41
2024-05-09T09:54:14.033Z,17.32
2024-05-09T09:59:16.620Z,17.92
2024-05-09T10:04:21.666Z,18.24
2024-05-09T10:09:24.460Z,18.29
2024-05-09T10:14:26.886Z,18.44
2024-05-09T10:19:33.773Z,18.65
2024-05-09T10:24:49.329Z,18.75
2024-05-09T10:29:52.742Z,18.98
2024-05-09T10:35:07.954Z,19.31
2024-05-09T10:45:19.708Z,19.52
2024-05-09T10:50:28.786Z,19.71
2024-05-09T10:55:34.309Z,19.87
2024-05-09T11:00:36.918Z,20.04
2024-05-09T11:05:43.248Z,20.15
2024-05-09T11:10:46.417Z,20.32
2024-05-09T11:15:49.020Z,20.53
2024-05-09T11:20:55.348Z,20.84
2024-05-09T11:25:58.965Z,21.14
2024-05-09T11:31:08.959Z,20.99
2024-05-09T11:36:15.374Z,21.57
2024-05-09T11:41:18.803Z,21.75
2024-05-09T11:46:21.309Z,21.97
2024-05-09T11:51:26.285Z,22.26
2024-05-09T11:56:28.724Z,22.38
2024-05-09T12:01:31.209Z,22.75
2024-05-09T12:06:36.375Z,23.03
2024-05-09T12:11:38.704Z,23.28
2024-05-09T12:16:41.141Z,23.35
2024-05-09T12:21:46.340Z,23.07
2024-05-09T12:26:48.636Z,23.07
2024-05-09T12:31:51.047Z,23.35
2024-05-09T12:36:56.106Z,23.54
2024-05-09T12:41:58.440Z,23.36
2024-05-09T12:47:00.751Z,23.88
2024-05-09T12:52:06.242Z,23.98
2024-05-09T12:57:08.606Z,24.01
2024-05-09T13:02:11.046Z,24.27
2024-05-09T13:07:16.339Z,24.59
2024-05-09T13:12:19.321Z,24.63
2024-05-09T13:17:22.405Z,24.35
2024-05-09T13:22:27.626Z,24.21
2024-05-09T13:27:29.957Z,23.34
2024-05-09T13:32:32.660Z,23.90
2024-05-09T13:37:37.864Z,24.14
2024-05-09T13:42:40.239Z,24.96
2024-05-09T13:47:42.788Z,25.35
2024-05-09T13:52:47.764Z,25.22
2024-05-09T13:57:50.369Z,24.75
2024-05-09T14:02:52.675Z,24.44
2024-05-09T14:07:58.544Z,24.07
2024-05-09T14:13:01.435Z,24.04
2024-05-09T14:18:04.301Z,24.37
2024-05-09T14:23:09.568Z,24.64
2024-05-09T14:28:13.198Z,24.91
2024-05-09T14:33:16.139Z,25.16
2024-05-09T14:38:21.233Z,25.47
2024-05-09T14:43:23.558Z,25.85
2024-05-09T14:48:26.064Z,26.66
2024-05-09T14:53:30.967Z,27.13
2024-05-09T14:58:33.334Z,27.58
2024-05-09T15:03:35.865Z,27.72
2024-05-09T15:08:40.797Z,27.53
2024-05-09T15:13:43.052Z,27.45
2024-05-09T15:18:45.718Z,27.59
2024-05-09T15:23:50.968Z,28.58
2024-05-09T15:28:53.219Z,28.30
2024-05-09T15:33:55.882Z,29.23
2024-05-09T15:39:01.184Z,29.62
2024-05-09T15:44:03.494Z,29.93
2024-05-09T15:49:05.934Z,30.20
2024-05-09T15:54:11.134Z,29.99
2024-05-09T15:59:13.450Z,29.43
2024-05-09T16:04:15.888Z,28.88
2024-05-09T16:09:21.230Z,28.12
2024-05-09T16:14:23.517Z,27.29
2024-05-09T16:19:26.087Z,26.64
2024-05-09T16:24:31.314Z,26.40
2024-05-09T16:29:33.884Z,26.03
2024-05-09T16:34:36.198Z,26.27
2024-05-09T16:39:41.104Z,26.58
2024-05-09T16:44:43.416Z,26.90
2024-05-09T16:49:45.672Z,26.41
2024-05-09T16:54:51.100Z,26.55
2024-05-09T16:59:53.384Z,26.73
2024-05-09T17:04:55.819Z,26.54
2024-05-09T17:10:00.803Z,26.36
2024-05-09T17:15:03.260Z,25.80
2024-05-09T17:20:10.433Z,25.06
2024-05-09T17:25:20.812Z,24.80
2024-05-09T17:30:28.985Z,24.32
2024-05-09T17:35:37.316Z,23.73
2024-05-09T17:40:42.543Z,23.14
2024-05-09T17:45:44.895Z,22.55
2024-05-09T17:50:47.181Z,22.47
2024-05-09T17:55:52.084Z,21.87
2024-05-09T18:00:54.527Z,21.68
2024-05-09T18:05:57.234Z,21.48
2024-05-09T18:11:02.212Z,21.21
2024-05-09T18:16:05.036Z,21.06
2024-05-09T18:21:07.291Z,20.69
2024-05-09T18:26:13.122Z,20.49
2024-05-09T18:31:15.583Z,20.51
2024-05-09T18:36:18.054Z,19.97
2024-05-09T18:41:23.004Z,19.93
2024-05-09T18:46:25.506Z,19.72
2024-05-09T18:51:27.968Z,19.52
2024-05-09T18:56:33.009Z,19.01
2024-05-09T19:01:35.686Z,18.84
2024-05-09T19:06:38.198Z,18.34
2024-05-09T19:11:43.213Z,18.39
2024-05-09T19:16:45.507Z,18.16
2024-05-09T19:21:48.003Z,17.64
2024-05-09T19:26:53.224Z,17.42
2024-05-09T19:31:56.750Z,16.73
2024-05-09T19:36:59.277Z,16.96
2024-05-09T19:42:04.904Z,16.58
2024-05-09T19:47:07.178Z,16.49
2024-05-09T19:52:09.668Z,15.90
2024-05-09T19:57:14.753Z,15.45
2024-05-09T20:02:17.311Z,15.86
2024-05-09T20:07:19.929Z,15.67
2024-05-09T20:12:25.083Z,15.48
2024-05-09T20:17:27.375Z,15.03
2024-05-09T20:22:29.817Z,15.15
2024-05-09T20:27:34.991Z,14.84
2024-05-09T20:32:37.468Z,14.64
2024-05-09T20:37:39.907Z,14.26
2024-05-09T20:42:44.857Z,14.48
2024-05-09T20:47:47.255Z,14.27
2024-05-09T20:52:49.544Z,13.95
2024-05-09T20:57:54.147Z,13.99
2024-05-09T21:02:56.394Z,13.14
2024-05-09T21:07:58.386Z,13.72
2024-05-09T21:13:04.002Z,13.44
2024-05-09T21:18:06.837Z,13.23
2024-05-09T21:23:09.349Z,13.10
2024-05-09T21:28:14.503Z,13.15
2024-05-09T21:33:17.044Z,13.06
2024-05-09T21:38:19.523Z,12.72
2024-05-09T21:43:24.516Z,12.62
2024-05-09T21:48:26.960Z,12.38
2024-05-09T21:53:29.221Z,12.51
2024-05-09T21:58:34.168Z,12.23
2024-05-09T22:03:36.522Z,12.29
2024-05-09T22:08:38.847Z,12.05
2024-05-09T22:13:43.752Z,12.04
2024-05-09T22:18:46.108Z,11.85
2024-05-09T22:23:48.347Z,11.71
2024-05-09T22:28:53.469Z,11.50
2024-05-09T22:33:55.984Z,11.34
2024-05-09T22:38:58.516Z,11.35
2024-05-09T22:44:03.373Z,11.27
2024-05-09T22:49:05.761Z,11.02
2024-05-09T22:54:08.108Z,10.40
2024-05-09T22:59:13.106Z,10.87
2024-05-09T23:04:15.408Z,10.70
2024-05-09T23:09:17.864Z,10.78
2024-05-09T23:14:22.856Z,10.60
2024-05-09T23:19:25.112Z,10.35
2024-05-09T23:24:27.638Z,10.11
2024-05-09T23:29:32.766Z,10.48
2024-05-09T23:34:35.118Z,10.21
2024-05-09T23:39:37.581Z,10.35
2024-05-09T23:44:42.558Z,10.26
2024-05-09T23:49:44.853Z,10.34
2024-05-09T23:54:47.186Z,10.17
2024-05-09T23:59:52.153Z,10.20
